Time;durP1;ratioP1;P1;durP2;ratioP2;P2;SDS_P1;SDS_P2;PMS_P1;PMS_P2;Temp;Humidity;BMP_temperature;BMP_pressure;BME280_temperature;BME280_humidity;BME280_pressure;Samples;Min_cycle;Max_cycle;Signal;HPM_P1;HPM_P2
2021/12/04 00:02:12;;;;;;;18.73;15.73;;;;;;;-145.45;100.00;62759.84;5337894;27;20038;-82
2021/12/04 00:04:48;;;;;;;20.63;18.50;;;;;;;-145.45;100.00;62759.84;5349682;27;20023;-81
2021/12/04 00:07:22;;;;;;;18.92;16.27;;;;;;;-145.45;100.00;62759.84;5332113;27;20066;-82
2021/12/04 00:09:58;;;;;;;17.48;15.65;;;;;;;-145.45;100.00;62759.84;5352548;27;20034;-82
2021/12/04 00:12:32;;;;;;;18.70;16.77;;;;;;;-145.45;100.00;62759.84;5337031;27;20023;-82
2021/12/04 00:15:07;;;;;;;19.00;15.68;;;;;;;-145.45;100.00;62759.84;5341520;27;20037;-81
2021/12/04 00:17:39;;;;;;;16.27;14.63;;;;;;;-145.45;100.00;62759.84;5346178;27;20027;-82
2021/12/04 00:20:11;;;;;;;17.42;15.63;;;;;;;-145.45;100.00;62759.84;5340181;27;20025;-82
2021/12/04 00:22:43;;;;;;;15.55;13.98;;;;;;;-145.45;100.00;62759.84;5342609;27;20045;-82
2021/12/04 00:25:15;;;;;;;15.40;13.80;;;;;;;-145.45;100.00;62759.84;5341458;27;20476;-82
2021/12/04 00:27:47;;;;;;;15.15;13.55;;;;;;;-145.45;100.00;62759.84;5338384;27;20113;-82
2021/12/04 00:30:18;;;;;;;16.15;14.45;;;;;;;-145.45;100.00;62759.84;5334948;27;20515;-82
2021/12/04 00:32:56;;;;;;;15.75;14.10;;;;;;;-145.45;100.00;62759.84;5323793;27;20035;-82
2021/12/04 00:49:07;;;;;;;15.02;12.10;;;;;;;-145.45;100.00;62759.84;5345161;27;20036;-82
2021/12/04 00:49:18;;;;;;;13.63;12.27;;;;;;;-145.45;100.00;62759.84;5341565;27;20059;-82
2021/12/04 00:51:55;;;;;;;14.77;13.13;;;;;;;-145.45;100.00;62759.84;5326744;27;20023;-82
2021/12/04 00:54:29;;;;;;;;;;;;;;;-145.45;100.00;62759.84;5324231;27;20043;-82
2021/12/04 00:57:01;;;;;;;15.77;12.55;;;;;;;-145.45;100.00;62759.84;5339249;27;20817;-82
2021/12/04 00:59:32;;;;;;;14.35;12.75;;;;;;;-145.45;100.00;62759.84;5326266;27;20036;-82
2021/12/04 01:02:04;;;;;;;15.35;13.93;;;;;;;-145.45;100.00;62759.84;5326903;27;20150;-82
2021/12/04 01:04:36;;;;;;;16.27;14.68;;;;;;;-145.45;100.00;62759.84;5327639;27;20066;-82
2021/12/04 01:07:08;;;;;;;14.93;13.32;;;;;;;-145.45;100.00;62759.84;5323030;27;20111;-82
2021/12/04 01:09:40;;;;;;;16.50;14.85;;;;;;;-145.45;100.00;62759.84;5319641;27;20047;-82
2021/12/04 01:12:12;;;;;;;15.75;14.20;;;;;;;-145.45;100.00;62759.84;5334753;27;20051;-83
2021/12/04 01:21:44;;;;;;;15.30;13.80;;;;;;;-145.45;100.00;62759.84;5341661;27;20024;-83
2021/12/04 01:24:53;;;;;;;14.80;13.25;;;;;;;-145.45;100.00;62759.84;5318007;27;20024;-82
2021/12/04 01:28:16;;;;;;;14.02;12.73;;;;;;;-145.45;100.00;62759.84;5326286;27;20032;-84
2021/12/04 01:31:42;;;;;;;15.10;13.48;;;;;;;-145.45;100.00;62759.84;5267713;27;20076;-82
2021/12/04 01:34:31;;;;;;;15.38;13.68;;;;;;;-145.45;100.00;62759.84;5334838;27;20043;-81
2021/12/04 01:41:43;;;;;;;14.30;12.93;;;;;;;-145.45;100.00;62759.84;5236478;28;20034;-83
2021/12/04 01:44:52;;;;;;;12.57;11.32;;;;;;;-145.45;100.00;62759.84;5233257;28;20133;-83
2021/12/04 01:47:46;;;;;;;13.50;12.13;;;;;;;-145.45;100.00;62759.84;5213953;28;20512;-82
2021/12/04 01:50:55;;;;;;;13.75;12.43;;;;;;;-145.45;100.00;62759.84;5279873;28;20040;-82
2021/12/04 01:53:45;;;;;;;13.57;12.10;;;;;;;-145.45;100.00;62759.84;5334412;27;20042;-83
2021/12/04 01:56:51;;;;;;;13.93;12.52;;;;;;;-145.45;100.00;62759.84;5332218;27;20118;-83
2021/12/04 01:59:45;;;;;;;15.13;13.60;;;;;;;-145.45;100.00;62759.84;5338144;27;20036;-83
2021/12/04 02:03:29;;;;;;;14.88;13.27;;;;;;;-145.45;100.00;62759.84;5319337;27;20062;-83
2021/12/04 02:10:25;;;;;;;14.05;12.65;;;;;;;-145.45;100.00;62759.84;5324777;27;20402;-83
2021/12/04 02:13:19;;;;;;;15.00;12.45;;;;;;;-145.45;100.00;62759.84;5266179;28;20092;-83
2021/12/04 02:16:16;;;;;;;14.48;13.07;;;;;;;-145.45;100.00;62759.84;5264481;28;20045;-83
2021/12/04 02:22:40;;;;;;;14.98;13.48;;;;;;;-145.45;100.00;62759.84;5266451;28;20029;-83
2021/12/04 02:25:39;;;;;;;14.85;13.35;;;;;;;-145.45;100.00;62759.84;5225066;28;20081;-83
2021/12/04 02:28:38;;;;;;;15.60;13.98;;;;;;;-145.45;100.00;62759.84;5222193;28;20042;-83
2021/12/04 02:34:48;;;;;;;16.67;13.93;;;;;;;-145.45;100.00;62759.84;5201559;28;20063;-81
2021/12/04 02:38:24;;;;;;;;;;;;;;;;;;;;;
2021/12/04 02:42:27;;;;;;;15.35;13.35;;;;;;;-145.45;100.00;62759.84;5208777;28;42642;-82
2021/12/04 02:45:39;;;;;;;;;;;;;;;;;;;;;
2021/12/04 02:48:25;;;;;;;16.35;13.00;;;;;;;-145.45;100.00;62759.84;5266935;28;20064;-82
2021/12/04 02:51:21;;;;;;;18.95;13.25;;;;;;;-145.45;100.00;62759.84;5225993;28;20031;-82
2021/12/04 02:54:00;;;;;;;14.93;13.18;;;;;;;-145.45;100.00;62759.84;5227532;28;20046;-82
2021/12/04 02:56:58;;;;;;;;;;;;;;;;;;;;;
2021/12/04 03:04:05;;;;;;;15.55;13.70;;;;;;;-145.45;100.00;62759.84;5172962;28;20074;-82
2021/12/04 03:07:11;;;;;;;16.60;13.32;;;;;;;-145.45;100.00;62759.84;5212258;28;20079;-82
2021/12/04 03:20:11;;;;;;;14.13;12.57;;;;;;;-145.45;100.00;62759.84;5235299;28;20469;-82
2021/12/04 03:26:10;;;;;;;15.00;12.93;;;;;;;-145.45;100.00;62759.84;5256334;28;20422;-82
2021/12/04 03:44:27;;;;;;;11.77;10.55;;;;;;;-145.45;100.00;62759.84;5315549;27;20368;-82
2021/12/04 03:47:30;;;;;;;12.27;10.52;;;;;;;-145.45;100.00;62759.84;5314127;27;20081;-82
2021/12/04 03:53:41;;;;;;;10.95;9.63;;;;;;;-145.45;100.00;62759.84;5233324;28;20026;-82
2021/12/04 03:56:47;;;;;;;10.45;9.48;;;;;;;-145.45;100.00;62759.84;5302074;27;20056;-82
2021/12/04 04:02:51;;;;;;;9.32;8.43;;;;;;;-145.45;100.00;62759.84;5230998;28;20073;-82
2021/12/04 04:06:10;;;;;;;9.45;8.55;;;;;;;-145.45;100.00;62759.84;5277233;28;20041;-82
2021/12/04 04:12:44;;;;;;;9.65;8.50;;;;;;;-145.45;100.00;62759.84;5242807;28;20561;-82
2021/12/04 04:16:00;;;;;;;8.35;7.55;;;;;;;-145.45;100.00;62759.84;5263441;28;20037;-82
2021/12/04 04:19:10;;;;;;;9.50;7.28;;;;;;;-145.45;100.00;62759.84;5250499;28;20080;-82
2021/12/04 04:21:55;;;;;;;7.53;6.82;;;;;;;-145.45;100.00;62759.84;5261736;28;20085;-82
2021/12/04 04:28:21;;;;;;;;;;;;;;;;;;;;;
2021/12/04 04:31:17;;;;;;;7.38;6.60;;;;;;;-145.45;100.00;62759.84;5294687;28;42470;-82
2021/12/04 04:34:29;;;;;;;7.70;7.00;;;;;;;-145.45;100.00;62759.84;5279473;28;20619;-81
2021/12/04 04:37:45;;;;;;;8.15;7.25;;;;;;;-145.45;100.00;62759.84;5287458;28;20036;-82
2021/12/04 04:40:28;;;;;;;7.28;6.57;;;;;;;-145.45;100.00;62759.84;5332525;27;20035;-82
2021/12/04 05:11:10;;;;;;;6.55;5.95;;;;;;;-145.45;100.00;62759.84;5305392;28;20044;-82
2021/12/04 05:13:59;;;;;;;5.82;5.22;;;;;;;-145.45;100.00;62759.84;5320785;27;20119;-82
2021/12/04 05:20:33;;;;;;;6.35;4.97;;;;;;;-145.45;100.00;62759.84;5259987;28;20025;-82
2021/12/04 05:23:43;;;;;;;6.60;5.90;;;;;;;-145.45;100.00;62759.84;5271989;28;20044;-82
2021/12/04 05:26:26;;;;;;;5.13;4.63;;;;;;;-145.45;100.00;62759.84;5304170;28;20036;-83
2021/12/04 05:29:54;;;;;;;5.97;5.38;;;;;;;-145.45;100.00;62759.84;5306952;28;20047;-83
2021/12/04 05:32:47;;;;;;;5.18;4.72;;;;;;;-145.45;100.00;62759.84;5277295;28;20029;-83
2021/12/04 05:35:47;;;;;;;;;;;;;;;;;;;;;
2021/12/04 05:39:23;;;;;;;4.97;4.57;;;;;;;-145.45;100.00;62759.84;5276166;28;41534;-83
2021/12/04 05:43:08;;;;;;;;;;;;;;;;;;;;;
2021/12/04 05:46:23;;;;;;;5.65;4.60;;;;;;;-145.45;100.00;62759.84;5278291;28;42548;-83
2021/12/04 06:02:53;;;;;;;5.57;5.07;;;;;;;-145.45;100.00;62759.84;5261087;28;20046;-83
2021/12/04 06:13:01;;;;;;;5.13;4.60;;;;;;;-145.45;100.00;62759.84;5211358;28;20130;-83
2021/12/04 06:16:01;;;;;;;5.43;4.93;;;;;;;-145.45;100.00;62759.84;5192638;28;20173;-83
2021/12/04 06:18:47;;;;;;;6.35;4.90;;;;;;;-145.45;100.00;62759.84;5194164;28;20070;-83
2021/12/04 06:25:00;;;;;;;5.07;4.57;;;;;;;-145.45;100.00;62759.84;5198905;28;20031;-83
2021/12/04 06:28:03;;;;;;;5.63;4.70;;;;;;;-145.45;100.00;62759.84;5184706;28;20216;-83
2021/12/04 06:31:31;;;;;;;6.20;5.22;;;;;;;-145.45;100.00;62759.84;5157843;28;20160;-83
2021/12/04 06:34:24;;;;;;;5.85;5.25;;;;;;;-145.45;100.00;62759.84;5144163;28;20165;-82
2021/12/04 06:37:15;;;;;;;6.65;5.20;;;;;;;-145.45;100.00;62759.84;5219823;28;20091;-83
2021/12/04 06:40:19;;;;;;;;;;;;;;;;;;;;;
2021/12/04 06:43:34;;;;;;;6.20;5.40;;;;;;;-145.45;100.00;62759.84;5247472;28;41235;-82
2021/12/04 06:47:14;;;;;;;5.93;4.40;;;;;;;-145.45;100.00;62759.84;5235256;28;20049;-82
2021/12/04 06:50:47;;;;;;;5.43;4.93;;;;;;;-145.45;100.00;62759.84;5195678;28;20034;-82
2021/12/04 07:07:24;;;;;;;;;;;;;;;;;;;;;
2021/12/04 07:10:09;;;;;;;5.88;5.05;;;;;;;-145.45;100.00;62759.84;5218627;28;41245;-82
2021/12/04 07:12:52;;;;;;;6.05;5.22;;;;;;;-145.45;100.00;62759.84;5215072;28;20668;-82
2021/12/04 07:16:07;;;;;;;8.50;6.03;;;;;;;-145.45;100.00;62759.84;5216070;28;20053;-82
2021/12/04 07:19:07;;;;;;;6.00;5.32;;;;;;;-145.45;100.00;62759.84;5216733;28;20041;-82
2021/12/04 07:25:49;;;;;;;8.18;5.82;;;;;;;-145.45;100.00;62759.84;5228279;28;20030;-82
2021/12/04 07:28:37;;;;;;;8.10;5.60;;;;;;;-145.45;100.00;62759.84;5217277;28;20045;-82
2021/12/04 07:31:49;;;;;;;6.18;5.47;;;;;;;-145.45;100.00;62759.84;5211563;28;20042;-82
2021/12/04 07:35:00;;;;;;;5.85;5.25;;;;;;;-145.45;100.00;62759.84;5265851;28;20041;-82
2021/12/04 07:38:03;;;;;;;5.68;5.03;;;;;;;-145.45;100.00;62759.84;5198389;28;20153;-82
2021/12/04 07:41:26;;;;;;;5.53;4.95;;;;;;;-145.45;100.00;62759.84;5196930;28;20038;-84
2021/12/04 07:44:17;;;;;;;7.68;5.57;;;;;;;-145.45;100.00;62759.84;5219482;28;20074;-82
2021/12/04 07:53:48;;;;;;;8.00;5.82;;;;;;;-145.45;100.00;62759.84;5217741;28;20041;-83
2021/12/04 07:59:46;;;;;;;6.85;5.57;;;;;;;-145.45;100.00;62759.84;5301432;28;20485;-83
2021/12/04 08:02:30;;;;;;;9.15;5.68;;;;;;;-145.45;100.00;62759.84;5302385;27;20648;-83
2021/12/04 08:09:42;;;;;;;7.22;5.88;;;;;;;-145.45;100.00;62759.84;5299648;27;20037;-83
2021/12/04 08:12:15;;;;;;;6.63;5.88;;;;;;;-145.45;100.00;62759.84;5302629;28;20114;-83
2021/12/04 08:15:28;;;;;;;10.20;6.10;;;;;;;-145.45;100.00;62759.84;5311026;27;20481;-83
2021/12/04 08:18:15;;;;;;;6.65;5.45;;;;;;;-145.45;100.00;62759.84;5314023;28;20076;-83
2021/12/04 08:20:52;;;;;;;8.32;6.10;;;;;;;-145.45;100.00;62759.84;5314885;27;20520;-83
2021/12/04 08:23:27;;;;;;;6.40;5.20;;;;;;;-145.45;100.00;62759.84;5311863;27;20113;-84
2021/12/04 08:26:08;;;;;;;7.53;5.97;;;;;;;-145.45;100.00;62759.84;5317045;27;20737;-84
2021/12/04 08:29:07;;;;;;;7.05;6.13;;;;;;;-145.45;100.00;62759.84;5337553;27;20024;-83
2021/12/04 08:32:24;;;;;;;6.57;5.88;;;;;;;-145.45;100.00;62759.84;5326357;27;20118;-83
2021/12/04 08:35:41;;;;;;;8.57;5.78;;;;;;;-145.45;100.00;62759.84;5358143;27;20047;-84
2021/12/04 08:38:28;;;;;;;7.18;6.47;;;;;;;-145.45;100.00;62759.84;5346793;27;20093;-84
2021/12/04 08:41:31;;;;;;;;;;;;;;;-145.45;100.00;62759.84;5330923;27;20027;-84
2021/12/04 08:47:22;;;;;;;6.93;5.72;;;;;;;-145.45;100.00;62759.84;5291782;28;20029;-84
2021/12/04 08:50:30;;;;;;;6.30;5.70;;;;;;;-145.45;100.00;62759.84;5291680;28;20139;-83
2021/12/04 08:53:23;;;;;;;6.90;5.72;;;;;;;-145.45;100.00;62759.84;5156332;28;20036;-83
2021/12/04 08:56:00;;;;;;;7.32;5.80;;;;;;;-145.45;100.00;62759.84;5158393;28;20035;-83
2021/12/04 08:58:39;;;;;;;9.02;5.55;;;;;;;-145.45;100.00;62759.84;5256681;28;20071;-84
2021/12/04 09:01:24;;;;;;;5.88;5.28;;;;;;;-145.45;100.00;62759.84;5285877;28;20032;-84
2021/12/04 09:07:48;;;;;;;6.20;5.65;;;;;;;-145.45;100.00;62759.84;5244803;28;20033;-84
2021/12/04 09:10:42;;;;;;;5.38;4.90;;;;;;;-145.45;100.00;62759.84;5326661;28;20046;-84
2021/12/04 09:13:30;;;;;;;5.13;4.63;;;;;;;-145.45;100.00;62759.84;5307727;28;20492;-84
2021/12/04 09:16:29;;;;;;;;;;;;;;;-145.45;100.00;62759.84;5308457;28;20041;-84
2021/12/04 09:19:36;;;;;;;;;;;;;;;-145.45;100.00;62759.84;5296030;28;19908;-84
2021/12/04 09:22:51;;;;;;;5.63;5.00;;;;;;;-145.45;100.00;62759.84;5293983;28;20345;-83
2021/12/04 09:25:33;;;;;;;6.30;5.25;;;;;;;-145.45;100.00;62759.84;5259287;28;20045;-84
2021/12/04 10:23:00;;;;;;;13.13;7.95;;;;;;;-145.45;100.00;62759.84;5177781;28;20039;-84
2021/12/04 10:32:42;;;;;;;11.52;8.23;;;;;;;-145.45;100.00;62759.84;5177969;28;20047;-84
2021/12/04 10:36:03;;;;;;;10.23;7.35;;;;;;;-145.45;100.00;62759.84;5195727;28;20053;-83
2021/12/04 10:39:08;;;;;;;9.77;7.50;;;;;;;-145.45;100.00;62759.84;5238590;28;20042;-82
2021/12/04 10:44:57;;;;;;;10.77;7.60;;;;;;;-145.45;100.00;62759.84;5315408;28;20500;-83
2021/12/04 10:48:33;;;;;;;13.38;9.35;;;;;;;-145.45;100.00;62759.84;5270826;28;20053;-82
2021/12/04 10:52:02;;;;;;;10.30;7.68;;;;;;;-145.45;100.00;62759.84;5208686;28;20034;-84
2021/12/04 11:41:15;;;;;;;6.30;5.70;;;;;;;-145.45;100.00;62759.84;5302303;28;20417;-83
2021/12/04 11:43:59;;;;;;;8.90;6.78;;;;;;;-145.45;100.00;62759.84;5302166;28;20393;-83
2021/12/04 11:46:46;;;;;;;8.30;6.32;;;;;;;-145.45;100.00;62759.84;5298687;28;20032;-83
2021/12/04 11:49:50;;;;;;;;;;;;;;;-145.45;100.00;62759.84;5310110;28;20079;-83
2021/12/04 11:52:31;;;;;;;7.85;6.88;;;;;;;-145.45;100.00;62759.84;5274038;28;19913;-83
2021/12/04 11:55:54;;;;;;;8.80;7.20;;;;;;;-145.45;100.00;62759.84;5313463;28;20053;-83
2021/12/04 11:59:04;;;;;;;9.25;7.05;;;;;;;-145.45;100.00;62759.84;5219785;28;20066;-83
2021/12/04 12:01:45;;;;;;;9.05;7.57;;;;;;;-145.45;100.00;62759.84;5203864;28;20034;-83
2021/12/04 12:05:04;;;;;;;9.18;8.27;;;;;;;-145.45;100.00;62759.84;5291947;28;20123;-83
2021/12/04 12:07:37;;;;;;;;;;;;;;;-145.45;100.00;62759.84;5305785;28;20127;-83
2021/12/04 12:10:34;;;;;;;10.02;8.43;;;;;;;-145.45;100.00;62759.84;5305421;28;19912;-83
2021/12/04 12:13:17;;;;;;;9.30;8.43;;;;;;;-145.45;100.00;62759.84;5305471;28;20025;-83
2021/12/04 12:16:08;;;;;;;8.82;7.93;;;;;;;-145.45;100.00;62759.84;5306551;28;20106;-83
2021/12/04 12:18:57;;;;;;;11.25;8.07;;;;;;;-145.45;100.00;62759.84;5305371;28;20048;-83
2021/12/04 12:25:13;;;;;;;12.85;8.50;;;;;;;-145.45;100.00;62759.84;5304094;28;20029;-83
2021/12/04 12:32:13;;;;;;;10.65;8.43;;;;;;;-145.45;100.00;62759.84;5289235;28;20021;-83
2021/12/04 12:39:15;;;;;;;9.75;8.73;;;;;;;-145.45;100.00;62759.84;5350191;27;20043;-83
2021/12/04 12:42:55;;;;;;;10.02;9.02;;;;;;;-145.45;100.00;62759.84;5336565;27;20028;-84
2021/12/04 12:45:38;;;;;;;;;;;;;;;-145.45;100.00;62759.84;5213595;28;20420;-83
2021/12/04 12:48:11;;;;;;;14.23;11.10;;;;;;;-145.45;100.00;62759.84;5208043;28;19922;-84
2021/12/04 12:51:37;;;;;;;16.02;13.70;;;;;;;-145.45;100.00;62759.84;5274036;28;20544;-83
2021/12/04 12:58:15;;;;;;;22.75;17.75;;;;;;;-145.45;100.00;62759.84;5262295;28;20147;-83
2021/12/04 13:17:49;;;;;;;28.20;21.63;;;;;;;-145.45;100.00;62759.84;5284910;27;20054;-84
2021/12/04 13:20:58;;;;;;;25.33;18.27;;;;;;;-145.45;100.00;62759.84;5324686;27;20035;-84
2021/12/04 13:23:56;;;;;;;28.80;20.00;;;;;;;-145.45;100.00;62759.84;5228803;28;20054;-84
2021/12/04 13:30:40;;;;;;;20.55;17.83;;;;;;;-145.45;100.00;62759.84;5357458;27;20456;-83
2021/12/04 13:37:17;;;;;;;;;;;;;;;;;;;;;
2021/12/04 13:43:43;;;;;;;27.08;17.33;;;;;;;-145.45;100.00;62759.84;5357007;27;20024;-82
2021/12/04 13:46:36;;;;;;;22.48;17.92;;;;;;;-145.45;100.00;62759.84;5334127;27;20024;-82
2021/12/04 13:50:06;;;;;;;25.45;17.35;;;;;;;-145.45;100.00;62759.84;5328763;27;20050;-83
2021/12/04 13:53:47;;;;;;;;;;;;;;;;;;;;;
2021/12/04 13:56:23;;;;;;;22.67;17.13;;;;;;;-145.45;100.00;62759.84;5331607;27;40857;-83
2021/12/04 13:59:15;;;;;;;25.65;16.73;;;;;;;-145.45;100.00;62759.84;5327134;27;20027;-83
2021/12/04 14:01:49;;;;;;;22.13;17.00;;;;;;;-145.45;100.00;62759.84;5337901;27;20595;-83
2021/12/04 14:04:43;;;;;;;;;;;;;;;;;;;;;
2021/12/04 14:08:10;;;;;;;;;;;;;;;;;;;;;
2021/12/04 14:11:00;;;;;;;24.20;17.80;;;;;;;-145.45;100.00;62759.84;5347762;27;42776;-83
2021/12/04 14:13:46;;;;;;;25.92;19.45;;;;;;;-145.45;100.00;62759.84;5343932;27;20118;-82
2021/12/04 14:16:35;;;;;;;24.52;17.52;;;;;;;-145.45;100.00;62759.84;5346242;27;20122;-83
2021/12/04 14:19:36;;;;;;;28.17;17.77;;;;;;;-145.45;100.00;62759.84;5346282;27;20427;-83
2021/12/04 14:25:53;;;;;;;24.35;16.33;;;;;;;-145.45;100.00;62759.84;5336670;27;20051;-83
2021/12/04 14:32:40;;;;;;;19.98;14.98;;;;;;;-145.45;100.00;62759.84;5351621;27;20016;-84
2021/12/04 14:38:32;;;;;;;17.75;12.75;;;;;;;-145.45;100.00;62759.84;5323420;27;20492;-83
2021/12/04 14:41:57;;;;;;;17.67;11.68;;;;;;;-145.45;100.00;62759.84;5327385;27;20028;-84
2021/12/04 14:44:52;;;;;;;17.23;10.82;;;;;;;-145.45;100.00;62759.84;5300216;28;20165;-84
2021/12/04 14:47:45;;;;;;;15.40;10.85;;;;;;;-145.45;100.00;62759.84;5296559;28;20044;-85
2021/12/04 14:50:35;;;;;;;17.95;10.00;;;;;;;-145.45;100.00;62759.84;5263605;28;20421;-84
2021/12/04 14:53:15;;;;;;;15.20;8.98;;;;;;;-145.45;100.00;62759.84;5263480;28;20035;-85
2021/12/04 14:55:49;;;;;;;11.73;8.02;;;;;;;-145.45;100.00;62759.84;5280316;28;20163;-85
2021/12/04 14:58:27;;;;;;;10.85;7.13;;;;;;;-145.45;100.00;62759.84;5263363;28;20434;-86
2021/12/04 15:01:08;;;;;;;12.23;7.00;;;;;;;-145.45;100.00;62759.84;5280474;28;20103;-85
2021/12/04 15:04:11;;;;;;;10.65;6.18;;;;;;;-145.45;100.00;62759.84;5263303;28;20386;-85
2021/12/04 15:13:12;;;;;;;;;;;;;;;;;;;;;
2021/12/04 15:16:34;;;;;;;7.18;4.70;;;;;;;-145.45;100.00;62759.84;5326748;28;39961;-83
2021/12/04 15:19:18;;;;;;;6.05;2.47;;;;;;;-145.45;100.00;62759.84;5242693;28;20392;-85
2021/12/04 15:22:24;;;;;;;9.80;3.53;;;;;;;-145.45;100.00;62759.84;5244706;28;20560;-84
2021/12/04 15:25:30;;;;;;;8.25;3.15;;;;;;;-145.45;100.00;62759.84;5284502;28;20032;-84
2021/12/04 15:28:54;;;;;;;;;;;;;;;;;;;;;
2021/12/04 15:32:00;;;;;;;5.40;2.67;;;;;;;-145.45;100.00;62759.84;5248511;28;42362;-84
2021/12/04 15:37:59;;;;;;;5.03;3.30;;;;;;;-145.45;100.00;62759.84;5323752;27;20127;-84
2021/12/04 15:47:32;;;;;;;12.98;5.60;;;;;;;-145.45;100.00;62759.84;5340816;27;20392;-83
2021/12/04 15:57:20;;;;;;;10.50;4.22;;;;;;;-145.45;100.00;62759.84;5315533;27;20041;-84
2021/12/04 16:03:32;;;;;;;8.40;4.32;;;;;;;-145.45;100.00;62759.84;5314841;27;20020;-85
2021/12/04 16:06:36;;;;;;;11.35;4.15;;;;;;;-145.45;100.00;62759.84;5316598;27;20024;-85
2021/12/04 16:09:34;;;;;;;7.28;3.45;;;;;;;-145.45;100.00;62759.84;5319705;27;20115;-86
2021/12/04 16:13:02;;;;;;;11.65;5.35;;;;;;;-145.45;100.00;62759.84;5321786;27;20036;-85
2021/12/04 16:15:52;;;;;;;17.70;6.72;;;;;;;-145.45;100.00;62759.84;5251070;28;20033;-86
2021/12/04 16:22:26;;;;;;;10.15;4.70;;;;;;;-145.45;100.00;62759.84;5250339;27;20028;-85
2021/12/04 16:25:21;;;;;;;12.02;3.78;;;;;;;-145.45;100.00;62759.84;5299907;27;20484;-85
2021/12/04 16:28:58;;;;;;;12.55;3.88;;;;;;;-145.45;100.00;62759.84;5309447;27;20032;-85
2021/12/04 16:41:51;;;;;;;13.68;4.35;;;;;;;-145.45;100.00;62759.84;5312475;27;20468;-84
2021/12/04 16:44:44;;;;;;;17.50;5.03;;;;;;;-145.45;100.00;62759.84;5316840;28;20415;-85
2021/12/04 17:00:01;;;;;;;12.80;5.00;;;;;;;-145.45;100.00;62759.84;5326440;27;20504;-85
2021/12/04 17:02:50;;;;;;;14.10;5.38;;;;;;;-145.45;100.00;62759.84;5300503;27;20040;-84
2021/12/04 17:09:27;;;;;;;22.42;5.45;;;;;;;-145.45;100.00;62759.84;5309783;27;21835;-83
2021/12/04 17:12:20;;;;;;;17.90;5.60;;;;;;;-145.45;100.00;62759.84;5304153;28;20024;-85
2021/12/04 17:14:53;;;;;;;23.25;5.75;;;;;;;-145.45;100.00;62759.84;5296390;28;20040;-85
2021/12/04 17:18:15;;;;;;;21.95;5.63;;;;;;;-145.45;100.00;62759.84;5311810;28;20032;-85
2021/12/04 17:20:59;;;;;;;29.17;6.07;;;;;;;-145.45;100.00;62759.84;5296801;28;20087;-85
2021/12/04 17:23:38;;;;;;;23.27;6.25;;;;;;;-145.45;100.00;62759.84;5291859;28;20032;-85
2021/12/04 17:26:17;;;;;;;27.83;7.40;;;;;;;-145.45;100.00;62759.84;5296760;27;21878;-83
2021/12/04 17:29:51;;;;;;;20.00;6.78;;;;;;;-145.45;100.00;62759.84;5298772;28;20044;-85
2021/12/04 17:36:33;;;;;;;;;;;;;;;;;;;;;
2021/12/04 17:42:56;;;;;;;31.77;6.13;;;;;;;-145.45;100.00;62759.84;5262163;27;20036;-85
2021/12/04 17:46:21;;;;;;;13.43;6.07;;;;;;;-145.45;100.00;62759.84;5290725;28;20094;-85
2021/12/04 17:49:54;;;;;;;;;;;;;;;;;;;;;
2021/12/04 17:56:14;;;;;;;18.95;5.43;;;;;;;-145.45;100.00;62759.84;5307047;28;20035;-83
2021/12/04 17:58:58;;;;;;;23.02;5.78;;;;;;;-145.45;100.00;62759.84;5311244;28;20148;-83
2021/12/04 18:01:53;;;;;;;17.38;5.20;;;;;;;-145.45;100.00;62759.84;5296200;28;20020;-83
2021/12/04 18:04:54;;;;;;;23.20;6.20;;;;;;;-145.45;100.00;62759.84;5298214;28;20140;-83
2021/12/04 18:07:37;;;;;;;16.80;5.47;;;;;;;-145.45;100.00;62759.84;5294072;28;20036;-83
2021/12/04 18:10:31;;;;;;;22.10;4.95;;;;;;;-145.45;100.00;62759.84;5294035;28;20188;-82
2021/12/04 18:13:51;;;;;;;20.77;5.35;;;;;;;-145.45;100.00;62759.84;5317975;27;20024;-83
2021/12/04 18:16:49;;;;;;;24.42;6.22;;;;;;;-145.45;100.00;62759.84;5304238;27;20039;-85
2021/12/04 18:20:00;;;;;;;;;;;;;;;-145.45;100.00;62759.84;5302967;28;20078;-85
2021/12/04 18:26:40;;;;;;;25.70;5.05;;;;;;;-145.45;100.00;62759.84;5299865;27;20028;-83
2021/12/04 18:32:55;;;;;;;25.10;6.07;;;;;;;-145.45;100.00;62759.84;5301261;27;20025;-83
2021/12/04 18:38:35;;;;;;;25.98;8.32;;;;;;;-145.45;100.00;62759.84;5310912;27;20041;-83
2021/12/04 18:41:36;;;;;;;27.15;9.07;;;;;;;-145.45;100.00;62759.84;5301920;28;20425;-83
2021/12/04 18:44:20;;;;;;;29.33;8.52;;;;;;;-145.45;100.00;62759.84;5317700;27;20055;-83
2021/12/04 18:47:23;;;;;;;27.77;8.85;;;;;;;-145.45;100.00;62759.84;5295310;28;20382;-83
2021/12/04 18:50:01;;;;;;;22.73;8.70;;;;;;;-145.45;100.00;62759.84;5295129;28;20448;-83
2021/12/04 18:52:57;;;;;;;22.13;8.93;;;;;;;-145.45;100.00;62759.84;5269694;28;20437;-83
2021/12/04 18:55:39;;;;;;;28.98;9.50;;;;;;;-145.45;100.00;62759.84;5273176;28;20028;-82
2021/12/04 18:58:32;;;;;;;;;;;;;;;;;;;;;
2021/12/04 19:04:23;;;;;;;18.95;9.52;;;;;;;-145.45;100.00;62759.84;5275238;28;20036;-83
2021/12/04 19:07:24;;;;;;;23.58;9.77;;;;;;;-145.45;100.00;62759.84;5261917;28;20040;-83
2021/12/04 19:10:20;;;;;;;29.58;12.65;;;;;;;-145.45;100.00;62759.84;5262371;28;20088;-82
2021/12/04 19:13:24;;;;;;;24.63;11.40;;;;;;;-145.45;100.00;62759.84;5268587;28;20045;-83
2021/12/04 19:16:33;;;;;;;28.17;10.85;;;;;;;-145.45;100.00;62759.84;5276353;28;20104;-82
2021/12/04 19:19:20;;;;;;;30.70;9.70;;;;;;;-145.45;100.00;62759.84;5267014;28;20405;-82
2021/12/04 19:25:51;;;;;;;29.58;10.45;;;;;;;-145.45;100.00;62759.84;5312192;27;20033;-82
2021/12/04 19:29:15;;;;;;;;;;;;;;;;;;;;;
2021/12/04 19:32:26;;;;;;;27.50;10.23;;;;;;;-145.45;100.00;62759.84;5305567;28;41327;-83
2021/12/04 19:51:42;;;;;;;;;;;;;;;;;;;;;
2021/12/04 19:57:50;;;;;;;25.88;9.20;;;;;;;-145.45;100.00;62759.84;5289192;28;20051;-82
2021/12/04 20:03:58;;;;;;;27.48;9.82;;;;;;;-145.45;100.00;62759.84;5218187;28;20050;-83
2021/12/04 20:16:16;;;;;;;38.28;18.25;;;;;;;-145.45;100.00;62759.84;5293186;27;20145;-83
2021/12/04 20:19:08;;;;;;;26.48;11.13;;;;;;;-145.45;100.00;62759.84;5295257;28;20077;-83
2021/12/04 20:22:23;;;;;;;;;;;;;;;;;;;;;
2021/12/04 20:25:42;;;;;;;25.42;9.82;;;;;;;-145.45;100.00;62759.84;5306376;28;41814;-83
2021/12/04 21:55:15;;;;;;;18.08;5.40;;;;;;;-145.45;100.00;62759.84;5247449;28;20029;-82
2021/12/04 23:01:32;;;;;;;11.68;3.83;;;;;;;-145.45;100.00;62759.84;5317360;28;20032;-81
2021/12/04 23:13:39;;;;;;;10.23;4.00;;;;;;;-145.45;100.00;62759.84;5316263;28;20028;-80
